Portada
METAR-TAF:

METAR-TAF

Aeroports :

Tirupati, Índia

latitud: 13-38-16N, longitud: 79-32-50E, altitud: 107 m

Observació

L'informe es va fer fa 34 minuts, a les 00:00 UTC
Vent 8 kt del Oest/Sud-Oest
Temperatura 27°C
Humitat 84%
Pressió 1006 hPa
Visibilitat: 6000 m
Núvols disperses a una alçada de 2000 ft
Cel ennuvolat a una alçada de 10000 ft

METAR: VOTP 180000Z 25008KT 6000 SCT020 BKN100 27/24 Q1006

Hora: 06:04 (00:34 UTC)

Pronòstic

L'informe es va fer fa 1 hora i 34 minuts, a les 23:00 UTC
Pronòstic vàlid del 18 a les 00 UTC al 18 a les 09 UTC
Vent 10 kt del Oest/Sud-Oest
Visibilitat: 5000 m
Núvols disperses a una alçada de 1500 ft
Cel ennuvolat a una alçada de 10000 ft
boirina
Evolucionant progressivament
l' 18 a les 04 UTC al 18 a les 05 UTC
Vent 10 kt del Oest
Visibilitat: 6000 m
Núvols disperses a una alçada de 1500 ft
Núvols disperses a una alçada de 10000 ft

TAF: VOTP 172300Z 1800/1809 25010KT 5000 BR SCT015 BKN100 BECMG 1804/1805 28010KT 6000 SCT015 SCT100

Observacions i pronòstics meteorològics de més de 4000 aeroports (METAR i TAF).

Les estacions disponibles són els punts grocs i vermells al mapa.

Posi el ratolí al punt desitjat per veure el nom de l'estació.

Feu clic per veure les observacions i els pronòstics meteorològics.

Per canviar el mapa: feu clic els botons verds amb una creu de color negre per apropar; al botó verd amb un guió per allunyar la imatge; o en les fletxes verdes per a mapes adjacents.


METAR-TAF: